Time;durP1;ratioP1;P1;durP2;ratioP2;P2;SDS_P1;SDS_P2;PMS_P1;PMS_P2;Temp;Humidity;BMP_temperature;BMP_pressure;BME280_temperature;BME280_humidity;BME280_pressure;Samples;Min_cycle;Max_cycle;Signal;HPM_P1;HPM_P2
2022/10/08 00:02:19;;;;;;;1.88;1.73;;;;;;;;;;5004830;28;20490;-87
2022/10/08 00:04:49;;;;;;;4.10;2.15;;;;;;;;;;5010017;28;20048;-88
2022/10/08 00:07:17;;;;;;;3.45;2.00;;;;;;;;;;5014963;28;20056;-86
2022/10/08 00:09:46;;;;;;;4.18;1.73;;;;;;;;;;5010105;28;20058;-87
2022/10/08 00:12:14;;;;;;;5.63;1.80;;;;;;;;;;5004331;28;20052;-87
2022/10/08 00:14:43;;;;;;;7.35;2.78;;;;;;;;;;5008221;28;20054;-86
2022/10/08 00:17:11;;;;;;;5.60;1.80;;;;;;;;;;5005158;28;20056;-87
2022/10/08 00:19:39;;;;;;;4.43;2.28;;;;;;;;;;5007958;28;20049;-87
2022/10/08 00:22:09;;;;;;;7.10;2.60;;;;;;;;;;5008936;28;20510;-86
2022/10/08 00:24:38;;;;;;;3.05;1.67;;;;;;;;;;5009532;28;20041;-87
2022/10/08 00:27:07;;;;;;;2.72;1.92;;;;;;;;;;5010855;28;20081;-87
2022/10/08 00:29:35;;;;;;;6.00;2.22;;;;;;;;;;5012955;28;20056;-88
2022/10/08 00:32:04;;;;;;;5.55;2.70;;;;;;;;;;5005610;28;20049;-87
2022/10/08 00:34:32;;;;;;;5.45;2.42;;;;;;;;;;5007904;28;20053;-88
2022/10/08 00:37:00;;;;;;;4.30;1.30;;;;;;;;;;5004150;28;20046;-87
2022/10/08 00:39:31;;;;;;;4.22;2.00;;;;;;;;;;5007418;28;20053;-86
2022/10/08 00:42:01;;;;;;;5.18;1.75;;;;;;;;;;5007502;28;20053;-84
2022/10/08 00:44:52;;;;;;;2.70;1.90;;;;;;;;;;5010418;28;20053;-87
2022/10/08 00:47:23;;;;;;;4.30;2.13;;;;;;;;;;5010046;28;20148;-87
2022/10/08 00:49:54;;;;;;;6.43;2.28;;;;;;;;;;5001238;28;20050;-87
2022/10/08 00:52:23;;;;;;;2.95;2.13;;;;;;;;;;5005416;28;20516;-87
2022/10/08 00:54:53;;;;;;;6.53;3.67;;;;;;;;;;5008475;28;20038;-87
2022/10/08 00:57:21;;;;;;;4.20;2.22;;;;;;;;;;5011167;28;20049;-87
2022/10/08 00:59:50;;;;;;;2.78;1.73;;;;;;;;;;5004651;28;20054;-87
2022/10/08 01:02:19;;;;;;;4.93;2.22;;;;;;;;;;5070852;22;20068;-85
2022/10/08 01:04:51;;;;;;;3.95;2.15;;;;;;;;;;5043430;23;20234;-95
2022/10/08 01:07:23;;;;;;;3.40;2.17;;;;;;;;;;5006806;28;20357;-95
2022/10/08 01:09:57;;;;;;;3.22;1.58;;;;;;;;;;5032671;23;20061;-84
2022/10/08 01:12:33;;;;;;;4.27;1.37;;;;;;;;;;4986230;28;20057;-86
2022/10/08 01:15:05;;;;;;;4.68;2.92;;;;;;;;;;5017702;28;20041;-84
2022/10/08 01:17:38;;;;;;;4.90;2.35;;;;;;;;;;5021565;28;20141;-84
2022/10/08 01:20:16;;;;;;;4.45;2.45;;;;;;;;;;5017296;28;20046;-84
2022/10/08 01:22:55;;;;;;;4.90;1.92;;;;;;;;;;5029060;28;20041;-87
2022/10/08 01:25:33;;;;;;;6.47;2.20;;;;;;;;;;5030277;28;20474;-84
2022/10/08 01:28:06;;;;;;;4.80;1.98;;;;;;;;;;5024887;28;20041;-84
2022/10/08 01:30:36;;;;;;;4.97;1.63;;;;;;;;;;5024696;28;20546;-84
2022/10/08 01:33:11;;;;;;;1.55;1.08;;;;;;;;;;5030507;28;20054;-85
2022/10/08 01:35:43;;;;;;;2.67;1.58;;;;;;;;;;5032918;28;20059;-83
2022/10/08 01:38:14;;;;;;;3.72;1.45;;;;;;;;;;5031072;28;20050;-85
2022/10/08 01:40:43;;;;;;;2.05;1.85;;;;;;;;;;5029272;28;20150;-85
2022/10/08 01:43:15;;;;;;;3.50;1.40;;;;;;;;;;5021866;28;20486;-88
2022/10/08 01:45:46;;;;;;;2.55;1.25;;;;;;;;;;5025807;28;20545;-85
2022/10/08 01:48:19;;;;;;;5.30;1.58;;;;;;;;;;5029295;28;20108;-85
2022/10/08 01:50:53;;;;;;;3.05;1.83;;;;;;;;;;5016071;28;20134;-85
2022/10/08 01:53:22;;;;;;;5.85;1.85;;;;;;;;;;5031155;28;20042;-84
2022/10/08 01:55:52;;;;;;;3.30;1.45;;;;;;;;;;5033120;28;20065;-85
2022/10/08 01:58:29;;;;;;;3.17;2.25;;;;;;;;;;5033966;28;20059;-84
2022/10/08 02:01:01;;;;;;;4.88;1.98;;;;;;;;;;5033109;28;20049;-84
2022/10/08 02:04:31;;;;;;;3.95;1.95;;;;;;;;;;5032909;28;20049;-84
2022/10/08 02:06:44;;;;;;;1.90;1.38;;;;;;;;;;5032956;28;20045;-85
2022/10/08 02:12:00;;;;;;;3.83;1.75;;;;;;;;;;5002752;28;20048;-85
2022/10/08 02:14:31;;;;;;;3.25;1.75;;;;;;;;;;5008687;28;20050;-85
2022/10/08 02:17:03;;;;;;;2.90;1.73;;;;;;;;;;5006838;28;20117;-88
2022/10/08 02:19:37;;;;;;;5.60;3.00;;;;;;;;;;5008970;28;20065;-87
2022/10/08 02:22:07;;;;;;;1.33;0.90;;;;;;;;;;5007334;28;20049;-87
2022/10/08 02:24:39;;;;;;;2.40;1.83;;;;;;;;;;5008585;28;20045;-87
2022/10/08 02:27:09;;;;;;;4.32;1.48;;;;;;;;;;5006986;28;20077;-87
2022/10/08 02:29:41;;;;;;;3.35;1.13;;;;;;;;;;5005763;28;20056;-87
2022/10/08 02:32:12;;;;;;;2.03;1.63;;;;;;;;;;5003611;28;20068;-87
2022/10/08 02:34:44;;;;;;;3.90;1.50;;;;;;;;;;5008728;28;20190;-87
2022/10/08 02:37:15;;;;;;;3.13;1.70;;;;;;;;;;4998748;28;20184;-87
2022/10/08 02:39:47;;;;;;;3.40;1.55;;;;;;;;;;5003395;28;20042;-87
2022/10/08 02:42:18;;;;;;;3.60;1.30;;;;;;;;;;5006348;28;20057;-87
2022/10/08 02:44:49;;;;;;;2.72;1.17;;;;;;;;;;5005979;28;20042;-87
2022/10/08 02:47:20;;;;;;;4.53;1.42;;;;;;;;;;5020941;28;20508;-88
2022/10/08 02:49:50;;;;;;;2.97;1.40;;;;;;;;;;5009447;28;20046;-87
2022/10/08 02:52:20;;;;;;;2.35;1.40;;;;;;;;;;5009560;28;20053;-87
2022/10/08 02:54:49;;;;;;;4.00;1.73;;;;;;;;;;5012927;28;20049;-87
2022/10/08 02:57:19;;;;;;;3.55;1.60;;;;;;;;;;5013572;28;20112;-88
2022/10/08 02:59:49;;;;;;;3.17;1.90;;;;;;;;;;5011042;28;20421;-87
2022/10/08 03:02:20;;;;;;;2.85;1.23;;;;;;;;;;5008304;28;20045;-87
2022/10/08 03:04:51;;;;;;;3.35;1.38;;;;;;;;;;5025422;28;20041;-87
2022/10/08 03:07:21;;;;;;;0.82;0.70;;;;;;;;;;5031191;28;20058;-87
2022/10/08 03:09:51;;;;;;;3.97;1.95;;;;;;;;;;5032504;28;20053;-87
2022/10/08 03:12:19;;;;;;;1.10;1.00;;;;;;;;;;5031184;28;20060;-87
2022/10/08 03:14:51;;;;;;;3.55;1.70;;;;;;;;;;5033591;28;20050;-87
2022/10/08 03:17:22;;;;;;;4.55;1.63;;;;;;;;;;5034635;28;20053;-87
2022/10/08 03:19:50;;;;;;;3.75;1.67;;;;;;;;;;5037169;28;20064;-87
2022/10/08 03:22:19;;;;;;;1.50;1.23;;;;;;;;;;5030388;28;20053;-87
2022/10/08 03:24:47;;;;;;;1.83;1.30;;;;;;;;;;5031891;28;20405;-88
2022/10/08 03:27:15;;;;;;;2.10;1.15;;;;;;;;;;5028129;28;20076;-87
2022/10/08 03:29:44;;;;;;;2.05;1.27;;;;;;;;;;5032240;28;20054;-86
2022/10/08 03:32:13;;;;;;;3.90;1.58;;;;;;;;;;5032169;28;20049;-87
2022/10/08 03:34:42;;;;;;;2.47;1.48;;;;;;;;;;5033895;28;20045;-87
2022/10/08 03:37:10;;;;;;;1.75;1.10;;;;;;;;;;5035229;28;20056;-87
2022/10/08 03:39:38;;;;;;;3.67;1.40;;;;;;;;;;5033356;28;20041;-87
2022/10/08 03:42:07;;;;;;;1.70;1.30;;;;;;;;;;5029046;28;20045;-87
2022/10/08 03:44:35;;;;;;;6.90;2.65;;;;;;;;;;5032953;28;20061;-86
2022/10/08 03:47:03;;;;;;;2.58;1.50;;;;;;;;;;5033948;28;20041;-87
2022/10/08 03:49:33;;;;;;;5.22;1.75;;;;;;;;;;5031501;28;20052;-87
2022/10/08 03:52:01;;;;;;;1.83;1.33;;;;;;;;;;5028606;28;20042;-88
2022/10/08 03:54:30;;;;;;;2.38;1.83;;;;;;;;;;5033154;28;20054;-87
2022/10/08 03:56:58;;;;;;;1.75;1.42;;;;;;;;;;5020500;28;20046;-87
2022/10/08 03:59:26;;;;;;;7.90;2.53;;;;;;;;;;5023904;28;20045;-88
2022/10/08 04:01:54;;;;;;;0.98;0.93;;;;;;;;;;5026961;28;20049;-87
2022/10/08 04:04:23;;;;;;;1.88;0.95;;;;;;;;;;5022178;28;20103;-88
2022/10/08 04:06:54;;;;;;;1.58;1.00;;;;;;;;;;5033254;28;20053;-87
2022/10/08 04:09:22;;;;;;;2.78;1.15;;;;;;;;;;5032946;28;20081;-87
2022/10/08 04:11:51;;;;;;;2.38;1.27;;;;;;;;;;5030989;28;20564;-88
2022/10/08 04:14:19;;;;;;;1.48;1.15;;;;;;;;;;5037832;28;20549;-87
2022/10/08 04:16:48;;;;;;;4.85;1.20;;;;;;;;;;5030616;28;20103;-88
2022/10/08 04:19:17;;;;;;;2.00;1.65;;;;;;;;;;5036106;28;20061;-87
2022/10/08 04:21:45;;;;;;;1.05;0.90;;;;;;;;;;5029037;28;20055;-86
2022/10/08 04:24:15;;;;;;;4.18;1.50;;;;;;;;;;5027511;28;20084;-89
2022/10/08 04:26:43;;;;;;;2.70;1.63;;;;;;;;;;5027539;28;20044;-88
2022/10/08 04:29:12;;;;;;;3.55;1.55;;;;;;;;;;5031706;28;20413;-87
2022/10/08 04:31:40;;;;;;;1.70;1.10;;;;;;;;;;5029610;28;20061;-88
2022/10/08 04:34:10;;;;;;;1.58;1.17;;;;;;;;;;5032084;28;20052;-87
2022/10/08 04:36:39;;;;;;;2.33;0.98;;;;;;;;;;5035699;28;20394;-87
2022/10/08 04:39:08;;;;;;;5.15;2.75;;;;;;;;;;5024990;28;20056;-88
2022/10/08 04:41:37;;;;;;;1.13;1.10;;;;;;;;;;5030681;28;20499;-88
2022/10/08 04:44:06;;;;;;;1.52;1.30;;;;;;;;;;5030628;28;20045;-87
2022/10/08 04:46:34;;;;;;;2.53;1.73;;;;;;;;;;5036070;28;20045;-87
2022/10/08 04:49:02;;;;;;;1.35;0.93;;;;;;;;;;5029724;28;20046;-87
2022/10/08 04:51:31;;;;;;;2.17;1.20;;;;;;;;;;5029781;28;20045;-87
2022/10/08 04:54:00;;;;;;;1.10;1.00;;;;;;;;;;5029256;28;20067;-87
2022/10/08 04:56:29;;;;;;;1.77;1.08;;;;;;;;;;5035214;28;20057;-88
2022/10/08 04:59:00;;;;;;;3.13;1.52;;;;;;;;;;5029956;28;20068;-87
2022/10/08 05:01:29;;;;;;;1.10;1.00;;;;;;;;;;5029744;28;20132;-87
2022/10/08 05:03:58;;;;;;;2.13;1.15;;;;;;;;;;5025980;28;20073;-87
2022/10/08 05:06:28;;;;;;;2.25;1.27;;;;;;;;;;5030497;28;20046;-87
2022/10/08 05:08:56;;;;;;;4.38;1.40;;;;;;;;;;5034775;28;20049;-87
2022/10/08 05:11:25;;;;;;;1.60;0.90;;;;;;;;;;5039338;28;20136;-87
2022/10/08 05:13:55;;;;;;;2.28;1.15;;;;;;;;;;5034003;28;20046;-87
2022/10/08 05:16:25;;;;;;;2.50;1.00;;;;;;;;;;5032142;28;20488;-88
2022/10/08 05:18:56;;;;;;;1.88;0.90;;;;;;;;;;5025969;28;20097;-87
2022/10/08 05:21:26;;;;;;;2.05;1.33;;;;;;;;;;5027790;28;20501;-88
2022/10/08 05:23:55;;;;;;;2.33;1.08;;;;;;;;;;5023860;28;20408;-88
2022/10/08 05:26:24;;;;;;;0.82;0.75;;;;;;;;;;5028929;28;20042;-87
2022/10/08 05:29:12;;;;;;;4.03;1.50;;;;;;;;;;5036655;28;20060;-87
2022/10/08 05:31:42;;;;;;;4.90;1.45;;;;;;;;;;5027580;28;20500;-87
2022/10/08 05:34:10;;;;;;;2.55;1.45;;;;;;;;;;5025951;28;20045;-87
2022/10/08 05:36:38;;;;;;;8.65;0.93;;;;;;;;;;5025684;28;20049;-88
2022/10/08 05:39:07;;;;;;;3.00;1.42;;;;;;;;;;5029803;28;20053;-88
2022/10/08 05:41:37;;;;;;;1.02;0.93;;;;;;;;;;5027705;28;20072;-87
2022/10/08 05:44:05;;;;;;;0.75;0.70;;;;;;;;;;5029047;28;20045;-88
2022/10/08 05:46:35;;;;;;;2.92;1.65;;;;;;;;;;5031736;28;20057;-88
2022/10/08 05:49:06;;;;;;;2.88;1.15;;;;;;;;;;5032690;28;20080;-91
2022/10/08 05:51:35;;;;;;;5.50;1.13;;;;;;;;;;5028449;28;20050;-93
2022/10/08 05:54:03;;;;;;;4.60;1.23;;;;;;;;;;5034500;28;20489;-92
2022/10/08 05:56:31;;;;;;;3.30;0.90;;;;;;;;;;5027001;28;20037;-92
2022/10/08 05:59:00;;;;;;;1.73;1.27;;;;;;;;;;5024284;28;20057;-91
2022/10/08 06:01:30;;;;;;;1.05;0.95;;;;;;;;;;5024356;28;20061;-91
2022/10/08 06:03:59;;;;;;;3.22;1.50;;;;;;;;;;5030705;28;20041;-91
2022/10/08 06:06:36;;;;;;;2.55;1.30;;;;;;;;;;5030544;28;20064;-92
2022/10/08 06:09:05;;;;;;;1.88;1.20;;;;;;;;;;5025131;28;20064;-90
2022/10/08 06:11:35;;;;;;;1.38;1.10;;;;;;;;;;5031070;28;20385;-93
2022/10/08 06:14:03;;;;;;;3.25;1.55;;;;;;;;;;5017906;28;20052;-92
2022/10/08 06:16:32;;;;;;;1.02;0.70;;;;;;;;;;5034170;28;20068;-92
2022/10/08 06:19:02;;;;;;;3.03;0.95;;;;;;;;;;5034504;28;20373;-91
2022/10/08 06:21:30;;;;;;;1.33;1.00;;;;;;;;;;5031142;28;20509;-93
2022/10/08 06:24:01;;;;;;;3.92;1.67;;;;;;;;;;5029775;28;20052;-93
2022/10/08 06:26:31;;;;;;;1.45;0.95;;;;;;;;;;5022868;28;20049;-93
2022/10/08 06:29:04;;;;;;;1.33;1.20;;;;;;;;;;5027303;28;20556;-91
2022/10/08 06:31:33;;;;;;;3.60;1.35;;;;;;;;;;5029740;28;20049;-94
2022/10/08 06:34:03;;;;;;;2.80;1.65;;;;;;;;;;5037494;28;20053;-94
2022/10/08 06:36:33;;;;;;;1.05;0.88;;;;;;;;;;5035605;28;20053;-94
2022/10/08 06:39:06;;;;;;;1.58;1.48;;;;;;;;;;5030366;28;20057;-92
2022/10/08 06:41:35;;;;;;;0.70;0.70;;;;;;;;;;5024655;28;20072;-92
2022/10/08 06:44:04;;;;;;;1.65;1.38;;;;;;;;;;5027625;28;20133;-95
2022/10/08 06:46:33;;;;;;;1.58;1.20;;;;;;;;;;5035531;28;20065;-94
2022/10/08 06:49:04;;;;;;;2.22;1.48;;;;;;;;;;5026852;28;20513;-95
2022/10/08 06:51:32;;;;;;;2.65;1.17;;;;;;;;;;5033729;28;20121;-93
2022/10/08 06:54:03;;;;;;;3.33;1.30;;;;;;;;;;5042185;28;20061;-92
2022/10/08 06:56:36;;;;;;;2.70;0.98;;;;;;;;;;5044073;28;20081;-91
2022/10/08 06:59:05;;;;;;;1.75;1.00;;;;;;;;;;5039028;28;20141;-92
2022/10/08 07:01:33;;;;;;;1.33;1.23;;;;;;;;;;5031009;28;20531;-94
2022/10/08 07:04:02;;;;;;;1.98;1.30;;;;;;;;;;5031249;28;20045;-93
2022/10/08 07:06:31;;;;;;;0.93;0.82;;;;;;;;;;5030725;28;20053;-93
2022/10/08 07:09:00;;;;;;;1.40;0.95;;;;;;;;;;5027813;28;20079;-90
2022/10/08 07:11:32;;;;;;;1.92;0.93;;;;;;;;;;5032624;28;20461;-95
2022/10/08 07:14:00;;;;;;;1.08;0.70;;;;;;;;;;5028853;28;20156;-94
2022/10/08 07:16:29;;;;;;;1.50;0.80;;;;;;;;;;5028545;28;20490;-93
2022/10/08 07:18:58;;;;;;;1.35;0.75;;;;;;;;;;5033392;28;20127;-93
2022/10/08 07:21:28;;;;;;;2.92;1.80;;;;;;;;;;5036660;28;20528;-93
2022/10/08 07:24:00;;;;;;;2.45;1.30;;;;;;;;;;5025816;28;20046;-88
2022/10/08 07:26:31;;;;;;;1.98;1.05;;;;;;;;;;5029799;28;20090;-90
2022/10/08 07:29:01;;;;;;;3.35;1.45;;;;;;;;;;5048538;23;20215;-89
2022/10/08 07:31:31;;;;;;;2.25;1.23;;;;;;;;;;5026756;28;20669;-86
2022/10/08 07:34:00;;;;;;;2.08;1.30;;;;;;;;;;5026895;28;20391;-85
2022/10/08 07:36:29;;;;;;;3.42;2.15;;;;;;;;;;5028501;28;20051;-88
2022/10/08 07:38:58;;;;;;;1.80;1.38;;;;;;;;;;5029280;28;20053;-86
2022/10/08 07:41:27;;;;;;;4.20;1.00;;;;;;;;;;5024210;28;20061;-86
2022/10/08 07:43:58;;;;;;;3.20;1.65;;;;;;;;;;5028504;28;20145;-86
2022/10/08 07:46:28;;;;;;;2.50;1.58;;;;;;;;;;5027486;28;20053;-87
2022/10/08 07:48:57;;;;;;;3.33;1.58;;;;;;;;;;5025318;28;20057;-86
2022/10/08 07:51:27;;;;;;;2.90;1.25;;;;;;;;;;5036390;28;20045;-90
2022/10/08 07:53:55;;;;;;;4.78;1.67;;;;;;;;;;5049908;28;20046;-87
2022/10/08 07:56:29;;;;;;;3.40;1.77;;;;;;;;;;5051431;28;20065;-86
2022/10/08 07:58:58;;;;;;;5.25;1.23;;;;;;;;;;5052152;28;20408;-91
2022/10/08 08:01:28;;;;;;;5.93;1.38;;;;;;;;;;5039853;28;20077;-86
2022/10/08 08:03:58;;;;;;;2.33;1.25;;;;;;;;;;5049275;28;20128;-91
2022/10/08 08:06:27;;;;;;;5.07;1.42;;;;;;;;;;5041488;28;20046;-85
2022/10/08 08:08:56;;;;;;;2.35;1.08;;;;;;;;;;5043072;28;20078;-85
2022/10/08 08:11:25;;;;;;;1.63;1.00;;;;;;;;;;5038013;28;20053;-85
2022/10/08 08:13:55;;;;;;;2.30;1.17;;;;;;;;;;5052156;28;20044;-85
2022/10/08 08:16:25;;;;;;;2.45;1.45;;;;;;;;;;5041399;28;20046;-86
2022/10/08 08:18:55;;;;;;;2.17;1.65;;;;;;;;;;5043033;28;20433;-86
2022/10/08 08:21:25;;;;;;;2.97;2.00;;;;;;;;;;5040034;28;20386;-88
2022/10/08 08:23:54;;;;;;;3.25;1.60;;;;;;;;;;5043517;28;20057;-89
2022/10/08 08:26:23;;;;;;;3.08;2.22;;;;;;;;;;5039730;28;20053;-84
2022/10/08 08:28:53;;;;;;;3.30;1.40;;;;;;;;;;5053670;28;20498;-84
2022/10/08 08:31:24;;;;;;;2.75;1.58;;;;;;;;;;5042945;28;20049;-87
2022/10/08 08:33:54;;;;;;;3.22;1.35;;;;;;;;;;5045384;28;20394;-90
2022/10/08 08:36:26;;;;;;;1.80;1.05;;;;;;;;;;5040394;28;20045;-85
2022/10/08 08:38:55;;;;;;;1.55;1.27;;;;;;;;;;5056827;28;20361;-84
2022/10/08 08:41:33;;;;;;;2.88;1.48;;;;;;;;;;5040687;28;20068;-84
2022/10/08 08:44:03;;;;;;;2.60;1.50;;;;;;;;;;5049808;28;20053;-85
2022/10/08 08:46:33;;;;;;;3.42;1.33;;;;;;;;;;5041035;28;20091;-90
2022/10/08 08:49:05;;;;;;;2.53;1.13;;;;;;;;;;5046417;28;20135;-90
2022/10/08 08:51:35;;;;;;;1.90;1.30;;;;;;;;;;5046973;28;20052;-89
2022/10/08 08:54:04;;;;;;;5.50;1.40;;;;;;;;;;5058556;28;20048;-85
2022/10/08 08:56:34;;;;;;;1.52;1.05;;;;;;;;;;5057974;28;20068;-85
2022/10/08 08:59:05;;;;;;;1.63;1.20;;;;;;;;;;5042724;28;20055;-87
2022/10/08 09:01:35;;;;;;;3.40;1.65;;;;;;;;;;5047225;28;20055;-87
2022/10/08 09:04:06;;;;;;;4.80;1.02;;;;;;;;;;5041860;28;20126;-89
2022/10/08 09:06:38;;;;;;;5.38;1.55;;;;;;;;;;5039261;28;20048;-87
2022/10/08 09:09:12;;;;;;;2.75;1.20;;;;;;;;;;5033760;28;20045;-87
2022/10/08 09:11:42;;;;;;;3.42;1.88;;;;;;;;;;5050901;28;20052;-89
2022/10/08 09:14:17;;;;;;;2.22;1.40;;;;;;;;;;5040472;28;20143;-87
2022/10/08 09:16:46;;;;;;;2.72;1.50;;;;;;;;;;5044344;28;20465;-87
2022/10/08 09:19:15;;;;;;;2.50;1.60;;;;;;;;;;5047697;28;20077;-87
2022/10/08 09:21:45;;;;;;;2.88;1.20;;;;;;;;;;5045668;28;20055;-86
2022/10/08 09:24:14;;;;;;;2.58;1.27;;;;;;;;;;5050052;28;20052;-84
2022/10/08 09:26:42;;;;;;;2.10;1.17;;;;;;;;;;5042077;28;20060;-89
2022/10/08 09:29:30;;;;;;;3.78;1.23;;;;;;;;;;5038858;28;20056;-87
2022/10/08 09:31:58;;;;;;;2.13;1.38;;;;;;;;;;5039917;28;20059;-87
2022/10/08 09:34:27;;;;;;;2.95;1.58;;;;;;;;;;5044648;28;20516;-87
2022/10/08 09:37:04;;;;;;;5.47;1.45;;;;;;;;;;5041401;28;20124;-87
2022/10/08 09:39:33;;;;;;;2.25;1.20;;;;;;;;;;5047003;28;20053;-90
2022/10/08 09:42:12;;;;;;;3.15;1.35;;;;;;;;;;5046381;28;20049;-88
2022/10/08 09:44:41;;;;;;;2.05;0.93;;;;;;;;;;5049324;28;20139;-86
2022/10/08 09:47:11;;;;;;;4.30;2.33;;;;;;;;;;5039592;28;20389;-88
2022/10/08 09:49:40;;;;;;;1.65;0.90;;;;;;;;;;5041259;28;20045;-88
2022/10/08 09:52:14;;;;;;;2.20;0.82;;;;;;;;;;5048403;28;20704;-88
2022/10/08 09:54:47;;;;;;;1.23;1.02;;;;;;;;;;5045113;28;20049;-86
2022/10/08 09:57:16;;;;;;;1.55;0.95;;;;;;;;;;5034808;28;20099;-88
2022/10/08 09:59:49;;;;;;;1.08;0.98;;;;;;;;;;5031560;28;20055;-88
2022/10/08 10:02:27;;;;;;;1.48;0.98;;;;;;;;;;5037981;28;20049;-90
2022/10/08 10:04:56;;;;;;;2.47;1.63;;;;;;;;;;5042931;28;20045;-85
2022/10/08 10:07:36;;;;;;;1.75;0.82;;;;;;;;;;5044221;28;20165;-87
2022/10/08 10:10:05;;;;;;;2.92;1.30;;;;;;;;;;5043495;28;20041;-91
2022/10/08 10:12:35;;;;;;;1.75;1.20;;;;;;;;;;5036594;28;20053;-85
2022/10/08 10:15:05;;;;;;;5.00;1.92;;;;;;;;;;5043551;28;20152;-85
2022/10/08 10:17:35;;;;;;;2.33;1.20;;;;;;;;;;5040506;28;20061;-89
2022/10/08 10:20:05;;;;;;;1.60;0.90;;;;;;;;;;5038727;28;20192;-88
2022/10/08 10:22:39;;;;;;;1.25;0.95;;;;;;;;;;5035248;28;20042;-85
2022/10/08 10:25:14;;;;;;;1.90;1.50;;;;;;;;;;5052372;28;20055;-86
2022/10/08 10:27:44;;;;;;;9.40;2.00;;;;;;;;;;5038729;28;20404;-85
2022/10/08 10:30:16;;;;;;;1.75;0.93;;;;;;;;;;5048711;28;20493;-88
2022/10/08 10:32:47;;;;;;;2.47;1.67;;;;;;;;;;5043166;28;20049;-92
2022/10/08 10:35:19;;;;;;;1.35;0.93;;;;;;;;;;5042693;28;20140;-88
2022/10/08 10:37:51;;;;;;;2.67;1.25;;;;;;;;;;5038237;28;20061;-88
2022/10/08 10:40:25;;;;;;;1.92;0.90;;;;;;;;;;5039815;28;20053;-89
2022/10/08 10:42:55;;;;;;;2.05;1.52;;;;;;;;;;5044093;28;20067;-91
2022/10/08 10:45:26;;;;;;;2.80;1.27;;;;;;;;;;5039231;28;20048;-87
2022/10/08 10:47:55;;;;;;;2.40;1.23;;;;;;;;;;5039605;28;20045;-88
2022/10/08 10:50:26;;;;;;;2.47;1.48;;;;;;;;;;5036884;28;20525;-87
2022/10/08 10:53:02;;;;;;;3.30;1.33;;;;;;;;;;5046979;28;20044;-88
2022/10/08 10:55:32;;;;;;;3.58;1.48;;;;;;;;;;5033840;28;20044;-92
2022/10/08 10:58:09;;;;;;;2.50;1.17;;;;;;;;;;5038014;28;20044;-87
2022/10/08 11:00:42;;;;;;;2.10;1.10;;;;;;;;;;5035948;28;20049;-93
2022/10/08 11:03:14;;;;;;;3.38;1.23;;;;;;;;;;5038713;28;20053;-86
2022/10/08 11:05:45;;;;;;;2.72;1.30;;;;;;;;;;5037725;28;20053;-86
2022/10/08 11:08:29;;;;;;;2.72;1.42;;;;;;;;;;5038721;28;20051;-85
2022/10/08 11:11:03;;;;;;;3.00;1.20;;;;;;;;;;5038650;28;20056;-86
2022/10/08 11:13:38;;;;;;;2.92;0.93;;;;;;;;;;5040262;28;20046;-85
2022/10/08 11:16:12;;;;;;;1.73;1.15;;;;;;;;;;5045481;28;20128;-87
2022/10/08 11:18:46;;;;;;;1.92;1.25;;;;;;;;;;5035409;28;20444;-93
2022/10/08 11:21:22;;;;;;;1.83;1.10;;;;;;;;;;5050025;28;20053;-87
2022/10/08 11:24:13;;;;;;;1.88;1.23;;;;;;;;;;5047884;28;20540;-86
2022/10/08 11:26:45;;;;;;;8.75;1.42;;;;;;;;;;5047001;28;20042;-86
2022/10/08 11:29:16;;;;;;;2.33;1.55;;;;;;;;;;5063636;28;20063;-87
2022/10/08 11:31:47;;;;;;;4.10;1.13;;;;;;;;;;5055595;28;20511;-86
2022/10/08 11:34:21;;;;;;;3.28;1.38;;;;;;;;;;5047910;28;20045;-88
2022/10/08 11:36:56;;;;;;;6.32;2.60;;;;;;;;;;5050671;28;20132;-87
2022/10/08 11:39:28;;;;;;;1.52;1.27;;;;;;;;;;5034929;28;20129;-85
2022/10/08 11:42:00;;;;;;;1.45;1.10;;;;;;;;;;5062368;28;20049;-86
2022/10/08 11:44:29;;;;;;;2.97;1.45;;;;;;;;;;5051274;28;20048;-87
2022/10/08 11:47:12;;;;;;;2.13;1.00;;;;;;;;;;5046078;28;20051;-87
2022/10/08 11:49:48;;;;;;;2.60;1.13;;;;;;;;;;5048201;28;20048;-84
2022/10/08 11:52:17;;;;;;;2.13;1.40;;;;;;;;;;5035262;28;20133;-86
2022/10/08 11:54:52;;;;;;;3.97;1.15;;;;;;;;;;5055205;28;20518;-85
2022/10/08 11:57:31;;;;;;;3.08;1.60;;;;;;;;;;5042715;28;20049;-89
2022/10/08 12:00:26;;;;;;;4.22;1.40;;;;;;;;;;5049302;28;20073;-84
2022/10/08 12:03:01;;;;;;;1.75;0.98;;;;;;;;;;5040675;28;20103;-86
2022/10/08 12:05:41;;;;;;;3.20;1.65;;;;;;;;;;5041790;28;20044;-85
2022/10/08 12:08:40;;;;;;;4.50;1.42;;;;;;;;;;5047860;28;20057;-86
2022/10/08 12:11:23;;;;;;;3.13;1.67;;;;;;;;;;5035621;28;20084;-87
2022/10/08 12:14:21;;;;;;;2.83;1.77;;;;;;;;;;5040606;28;20084;-86
2022/10/08 12:17:08;;;;;;;4.70;1.60;;;;;;;;;;5041811;28;20367;-85
2022/10/08 12:19:57;;;;;;;2.10;1.10;;;;;;;;;;5045771;28;20055;-86
2022/10/08 12:22:42;;;;;;;3.10;1.92;;;;;;;;;;5026954;28;20459;-86
2022/10/08 12:25:44;;;;;;;4.03;0.80;;;;;;;;;;5048076;28;20059;-86
2022/10/08 12:28:31;;;;;;;1.63;1.17;;;;;;;;;;4973015;28;20043;-86
2022/10/08 12:31:02;;;;;;;1.92;1.40;;;;;;;;;;4949839;28;20043;-94
2022/10/08 12:33:31;;;;;;;3.80;1.40;;;;;;;;;;4999959;28;20044;-85
2022/10/08 12:36:02;;;;;;;9.05;1.95;;;;;;;;;;5020610;28;20054;-87
2022/10/08 12:38:35;;;;;;;1.95;1.40;;;;;;;;;;5025765;28;20133;-87
2022/10/08 12:41:10;;;;;;;7.53;1.42;;;;;;;;;;5034254;28;20142;-88
2022/10/08 12:43:43;;;;;;;5.20;1.80;;;;;;;;;;5047817;28;20053;-86
2022/10/08 12:46:24;;;;;;;2.47;1.52;;;;;;;;;;5036621;28;20136;-86
2022/10/08 12:48:58;;;;;;;2.28;1.25;;;;;;;;;;5047372;28;20079;-86
2022/10/08 12:51:30;;;;;;;2.57;1.50;;;;;;;;;;5038874;28;20150;-86
2022/10/08 12:53:59;;;;;;;1.83;1.50;;;;;;;;;;5045913;28;20492;-86
2022/10/08 12:56:29;;;;;;;6.13;1.73;;;;;;;;;;5036617;28;20124;-85
2022/10/08 12:58:59;;;;;;;2.45;1.25;;;;;;;;;;5047047;28;20049;-85
2022/10/08 13:01:29;;;;;;;2.60;1.65;;;;;;;;;;5041169;28;20063;-91
2022/10/08 13:04:17;;;;;;;2.05;1.58;;;;;;;;;;5042977;28;20041;-85
2022/10/08 13:06:46;;;;;;;1.98;1.15;;;;;;;;;;5038680;28;20127;-85
2022/10/08 13:09:25;;;;;;;1.45;1.10;;;;;;;;;;5045952;28;20044;-88
2022/10/08 13:11:53;;;;;;;3.03;1.77;;;;;;;;;;5047333;28;20055;-86
2022/10/08 13:14:29;;;;;;;6.00;1.25;;;;;;;;;;5045031;28;20052;-91
2022/10/08 13:16:59;;;;;;;4.40;1.42;;;;;;;;;;5040254;28;20044;-91
2022/10/08 13:19:29;;;;;;;1.58;1.35;;;;;;;;;;5039238;28;20041;-86
2022/10/08 13:21:59;;;;;;;1.95;1.50;;;;;;;;;;5033538;28;20521;-87
2022/10/08 13:24:30;;;;;;;3.35;1.88;;;;;;;;;;5040567;28;20055;-87
2022/10/08 13:26:58;;;;;;;5.57;1.92;;;;;;;;;;5038086;28;20045;-86
2022/10/08 13:29:34;;;;;;;1.90;1.27;;;;;;;;;;5035422;28;20057;-87
2022/10/08 13:32:05;;;;;;;2.35;1.30;;;;;;;;;;5027474;28;20056;-87
2022/10/08 13:34:35;;;;;;;5.20;2.00;;;;;;;;;;5054276;28;20053;-84
2022/10/08 13:37:05;;;;;;;6.13;1.73;;;;;;;;;;5041696;28;20372;-84
2022/10/08 13:39:35;;;;;;;6.55;2.15;;;;;;;;;;5041585;28;20041;-88
2022/10/08 13:42:06;;;;;;;7.00;1.90;;;;;;;;;;5039519;28;20053;-86
2022/10/08 13:44:34;;;;;;;4.65;2.22;;;;;;;;;;5050161;28;20040;-87
2022/10/08 13:47:04;;;;;;;4.40;1.83;;;;;;;;;;5034365;28;20041;-86
2022/10/08 13:49:33;;;;;;;2.35;1.50;;;;;;;;;;5040569;28;20448;-86
2022/10/08 13:52:02;;;;;;;2.70;1.90;;;;;;;;;;5038414;28;20052;-85
2022/10/08 13:54:32;;;;;;;4.25;2.25;;;;;;;;;;5040873;28;20455;-87
2022/10/08 13:57:00;;;;;;;2.97;1.15;;;;;;;;;;5051562;28;20055;-88
2022/10/08 13:59:29;;;;;;;4.07;1.73;;;;;;;;;;5043853;28;20108;-87
2022/10/08 14:01:58;;;;;;;2.45;1.13;;;;;;;;;;5044334;28;20059;-88
2022/10/08 14:04:28;;;;;;;1.70;1.02;;;;;;;;;;5045136;28;20055;-87
2022/10/08 14:06:58;;;;;;;2.95;1.60;;;;;;;;;;5044068;28;20508;-87
2022/10/08 14:09:27;;;;;;;2.88;1.38;;;;;;;;;;5049122;28;20490;-88
2022/10/08 14:11:58;;;;;;;3.90;1.88;;;;;;;;;;5039363;28;20054;-87
2022/10/08 14:14:27;;;;;;;3.80;1.45;;;;;;;;;;5049350;28;20044;-88
2022/10/08 14:16:55;;;;;;;4.03;1.80;;;;;;;;;;5034919;28;20425;-88
2022/10/08 14:19:24;;;;;;;4.85;2.00;;;;;;;;;;5043615;28;20045;-90
2022/10/08 14:21:55;;;;;;;3.63;1.70;;;;;;;;;;5048933;28;20041;-88
2022/10/08 14:24:24;;;;;;;6.78;2.70;;;;;;;;;;5046088;28;20053;-88
2022/10/08 14:26:52;;;;;;;4.72;1.50;;;;;;;;;;5050190;28;20152;-90
2022/10/08 14:29:21;;;;;;;3.90;1.90;;;;;;;;;;5046371;28;20091;-91
2022/10/08 14:31:49;;;;;;;5.15;2.25;;;;;;;;;;5046601;28;20092;-90
2022/10/08 14:34:18;;;;;;;7.90;1.70;;;;;;;;;;5051141;28;20558;-91
2022/10/08 14:36:48;;;;;;;4.68;1.48;;;;;;;;;;5044817;28;20051;-88
2022/10/08 14:39:20;;;;;;;3.65;1.80;;;;;;;;;;5044536;28;20056;-92
2022/10/08 14:41:48;;;;;;;2.17;1.42;;;;;;;;;;5047713;28;20080;-88
2022/10/08 14:44:20;;;;;;;4.57;2.25;;;;;;;;;;5037285;28;20041;-89
2022/10/08 14:46:50;;;;;;;2.65;1.52;;;;;;;;;;5042026;28;20072;-92
2022/10/08 14:49:19;;;;;;;3.15;1.77;;;;;;;;;;5039761;28;20455;-90
2022/10/08 14:51:47;;;;;;;3.13;1.55;;;;;;;;;;5048776;28;20131;-89
2022/10/08 14:54:16;;;;;;;6.97;1.75;;;;;;;;;;5049423;28;20056;-90
2022/10/08 14:56:47;;;;;;;3.55;1.20;;;;;;;;;;5052599;28;20121;-90
2022/10/08 14:59:15;;;;;;;5.78;1.85;;;;;;;;;;5043325;28;20136;-89
2022/10/08 15:01:44;;;;;;;4.43;1.92;;;;;;;;;;5040738;28;21078;-89
2022/10/08 15:04:14;;;;;;;3.55;1.92;;;;;;;;;;5041270;28;20049;-90
2022/10/08 15:06:42;;;;;;;5.68;1.85;;;;;;;;;;5053170;28;20131;-89
2022/10/08 15:09:11;;;;;;;2.03;1.33;;;;;;;;;;5055085;28;20501;-89
2022/10/08 15:11:40;;;;;;;2.65;1.38;;;;;;;;;;5046317;28;20055;-89